Terminal Aerodrome Forecast
Issued by NWS Wilmington, OH

Current Version | Previous Version | Graphics & Text | Print | Product List | Glossary On
Versions: 1 2 3 4 5 6 7 8 9 10 11 12 13 14 15 16 17 18 19 20 21 22 23
000
FTUS41 KILN 010500 RRA
TAFILN
TAF
KILN 010543Z 0106/0206 12005KT 1 1/2SM -SN OVC018
     FM011200 17005KT 3SM -SN OVC012
     FM011500 20006KT 3SM -SN OVC012
      TEMPO 0115/0118 OVC008
     FM011800 23006KT 4SM -DZ OVC009
     FM012100 27007KT 1SM -SN OVC009
      TEMPO 0123/0203 1/2SM SN OVC007
     FM020300 29009KT P6SM OVC012=

USA.gov is the U.S. government's official web portal to all federal, state and local government web resources and services.